TAI322 MPTO-MSLP
Flight info
| Callsign | TAI322 |
|---|---|
| Flight time | 1h 47m |
| Altitude | 36000 |
| Route | AROVI DCT ANSON DCT EMARI DCT ALTEG ALTEG2 |
| Aircraft | A320/M-SDE3FGHIRWY/LB1 |
Departure
| Time | 2026-04-27 22:45 |
|---|---|
| Airport | Tocumen International Airport (MPTO) |
Arrival
| Time | 2026-04-28 00:33 |
|---|---|
| Airport | El Salvador International Airport Saint Óscar Arnulfo Romero y Galdámez (MSLP) |
| Time | Latitude | Longitude | Altitude | Speed | Heading |
|---|---|---|---|---|---|
| 2026-04-27 22:23 | 9.07038 | -79.38627 | 144 ft | 0 kts | 121° |
| 2026-04-27 22:38 | 9.07038 | -79.38628 | 144 ft | 2 kts | 121° |
| 2026-04-27 22:38 | 9.07050 | -79.38650 | 144 ft | 4 kts | 105° |
| 2026-04-27 22:38 | 9.07053 | -79.38676 | 144 ft | 4 kts | 81° |
| 2026-04-27 22:38 | 9.07051 | -79.38686 | 144 ft | 0 kts | 75° |
| 2026-04-27 22:41 | 9.07058 | -79.38671 | 144 ft | 6 kts | 55° |
| 2026-04-27 22:42 | 9.07113 | -79.38643 | 144 ft | 10 kts | 25° |
| 2026-04-27 22:42 | 9.07170 | -79.38614 | 144 ft | 9 kts | 24° |
| 2026-04-27 22:42 | 9.07254 | -79.38636 | 144 ft | 15 kts | 315° |
| 2026-04-27 22:42 | 9.07265 | -79.38654 | 144 ft | 0 kts | 298° |
| 2026-04-27 22:44 | 9.07265 | -79.38655 | 144 ft | 1 kts | 298° |
| 2026-04-27 22:44 | 9.07280 | -79.38683 | 144 ft | 8 kts | 298° |
| 2026-04-27 22:44 | 9.07317 | -79.38709 | 144 ft | 6 kts | 5° |
| 2026-04-27 22:44 | 9.07348 | -79.38692 | 144 ft | 7 kts | 30° |
| 2026-04-27 22:45 | 9.07541 | -79.38576 | 146 ft | 71 kts | 31° |
| 2026-04-27 22:45 | 9.08189 | -79.38186 | 143 ft | 143 kts | 31° |
| 2026-04-27 22:45 | 9.09200 | -79.37582 | 296 ft | 183 kts | 30° |
| 2026-04-27 22:45 | 9.10297 | -79.36927 | 1060 ft | 181 kts | 29° |
| 2026-04-27 22:46 | 9.11371 | -79.36277 | 1984 ft | 181 kts | 28° |
| 2026-04-27 22:46 | 9.12510 | -79.35600 | 2500 ft | 198 kts | 28° |
| 2026-04-27 22:46 | 9.13748 | -79.34863 | 2850 ft | 217 kts | 30° |
| 2026-04-27 22:46 | 9.15105 | -79.34044 | 3207 ft | 239 kts | 30° |
| 2026-04-27 22:47 | 9.16600 | -79.33142 | 3584 ft | 260 kts | 30° |
| 2026-04-27 22:47 | 9.18188 | -79.32185 | 4259 ft | 269 kts | 30° |
| 2026-04-27 22:47 | 9.19810 | -79.31209 | 5030 ft | 273 kts | 30° |
| 2026-04-27 22:47 | 9.21519 | -79.30374 | 5839 ft | 275 kts | 12° |
| 2026-04-27 22:48 | 9.23418 | -79.30474 | 6628 ft | 279 kts | 340° |
| 2026-04-27 22:48 | 9.24980 | -79.31634 | 7393 ft | 285 kts | 308° |
| 2026-04-27 22:48 | 9.25729 | -79.33495 | 8134 ft | 293 kts | 281° |
| 2026-04-27 22:48 | 9.25857 | -79.35572 | 8874 ft | 298 kts | 270° |
| 2026-04-27 22:49 | 9.25784 | -79.37680 | 9649 ft | 301 kts | 269° |
| 2026-04-27 22:49 | 9.25725 | -79.39811 | 10328 ft | 304 kts | 270° |
| 2026-04-27 22:49 | 9.25755 | -79.41925 | 11029 ft | 305 kts | 273° |
| 2026-04-27 22:49 | 9.25880 | -79.44081 | 11714 ft | 307 kts | 275° |
| 2026-04-27 22:50 | 9.26079 | -79.46241 | 12395 ft | 310 kts | 276° |
| 2026-04-27 22:50 | 9.26321 | -79.48415 | 13062 ft | 312 kts | 277° |
| 2026-04-27 22:50 | 9.26588 | -79.50611 | 13709 ft | 315 kts | 277° |
| 2026-04-27 22:50 | 9.26865 | -79.52822 | 14275 ft | 318 kts | 277° |
| 2026-04-27 22:51 | 9.27184 | -79.55049 | 14827 ft | 321 kts | 283° |
| 2026-04-27 22:51 | 9.27793 | -79.57285 | 15034 ft | 339 kts | 287° |
| 2026-04-27 22:51 | 9.28473 | -79.59635 | 15152 ft | 357 kts | 287° |
| 2026-04-27 22:51 | 9.29184 | -79.62084 | 15492 ft | 366 kts | 287° |
| 2026-04-27 22:52 | 9.29905 | -79.64571 | 15978 ft | 370 kts | 287° |
| 2026-04-27 22:52 | 9.30631 | -79.67086 | 16486 ft | 374 kts | 287° |
| 2026-04-27 22:52 | 9.31363 | -79.69622 | 16998 ft | 377 kts | 287° |
| 2026-04-27 22:52 | 9.32104 | -79.72183 | 17484 ft | 381 kts | 287° |
| 2026-04-27 22:53 | 9.32841 | -79.74738 | 17961 ft | 384 kts | 287° |
| 2026-04-27 22:53 | 9.33592 | -79.77346 | 18430 ft | 387 kts | 287° |
| 2026-04-27 22:53 | 9.34352 | -79.79974 | 18863 ft | 390 kts | 287° |
| 2026-04-27 22:53 | 9.35114 | -79.82614 | 19328 ft | 392 kts | 287° |
| 2026-04-27 22:54 | 9.35880 | -79.85276 | 19808 ft | 394 kts | 286° |
| 2026-04-27 22:54 | 9.36629 | -79.87950 | 20284 ft | 396 kts | 285° |
| 2026-04-27 22:54 | 9.37308 | -79.90661 | 20754 ft | 398 kts | 283° |
| 2026-04-27 22:54 | 9.37938 | -79.93384 | 21216 ft | 400 kts | 282° |
| 2026-04-27 22:55 | 9.38556 | -79.96134 | 21685 ft | 402 kts | 282° |
| 2026-04-27 22:55 | 9.39177 | -79.98900 | 22144 ft | 404 kts | 282° |
| 2026-04-27 22:55 | 9.39807 | -80.01679 | 22625 ft | 406 kts | 282° |
| 2026-04-27 22:55 | 9.40451 | -80.04468 | 23087 ft | 408 kts | 282° |
| 2026-04-27 22:56 | 9.41110 | -80.07274 | 23519 ft | 410 kts | 282° |
| 2026-04-27 22:56 | 9.41774 | -80.10085 | 23888 ft | 412 kts | 282° |
| 2026-04-27 22:56 | 9.42442 | -80.12916 | 24204 ft | 415 kts | 282° |
| 2026-04-27 22:56 | 9.43105 | -80.15731 | 24529 ft | 418 kts | 282° |
| 2026-04-27 22:57 | 9.43781 | -80.18600 | 24858 ft | 420 kts | 282° |
| 2026-04-27 22:57 | 9.44460 | -80.21485 | 25200 ft | 422 kts | 282° |
| 2026-04-27 22:57 | 9.45141 | -80.24387 | 25530 ft | 424 kts | 282° |
| 2026-04-27 22:57 | 9.45821 | -80.27303 | 25856 ft | 427 kts | 281° |
| 2026-04-27 22:58 | 9.46506 | -80.30241 | 26170 ft | 429 kts | 281° |
| 2026-04-27 22:58 | 9.47195 | -80.33187 | 26492 ft | 431 kts | 281° |
| 2026-04-27 22:58 | 9.47889 | -80.36152 | 26799 ft | 433 kts | 281° |
| 2026-04-27 22:58 | 9.48588 | -80.39127 | 27104 ft | 435 kts | 281° |
| 2026-04-27 22:59 | 9.49290 | -80.42116 | 27402 ft | 437 kts | 281° |
| 2026-04-27 22:59 | 9.49995 | -80.45118 | 27693 ft | 439 kts | 281° |
| 2026-04-27 22:59 | 9.50705 | -80.48140 | 27998 ft | 441 kts | 281° |
| 2026-04-27 22:59 | 9.51413 | -80.51172 | 28278 ft | 443 kts | 280° |
| 2026-04-27 23:00 | 9.52830 | -80.57273 | 28854 ft | 447 kts | 280° |
| 2026-04-27 23:00 | 9.53545 | -80.60349 | 29136 ft | 449 kts | 280° |
| 2026-04-27 23:00 | 9.54264 | -80.63432 | 29406 ft | 451 kts | 280° |
| 2026-04-27 23:01 | 9.54988 | -80.66530 | 29668 ft | 453 kts | 280° |
| 2026-04-27 23:01 | 9.55715 | -80.69640 | 29922 ft | 455 kts | 280° |
| 2026-04-27 23:01 | 9.56437 | -80.72729 | 30153 ft | 456 kts | 280° |
| 2026-04-27 23:01 | 9.57168 | -80.75863 | 30361 ft | 458 kts | 280° |
| 2026-04-27 23:02 | 9.57900 | -80.79003 | 30603 ft | 459 kts | 280° |
| 2026-04-27 23:02 | 9.58662 | -80.82151 | 30822 ft | 461 kts | 283° |
| 2026-04-27 23:02 | 9.59811 | -80.85199 | 31033 ft | 466 kts | 293° |
| 2026-04-27 23:02 | 9.61435 | -80.88052 | 31287 ft | 469 kts | 300° |
| 2026-04-27 23:03 | 9.63198 | -80.90832 | 31601 ft | 467 kts | 300° |
| 2026-04-27 23:03 | 9.64943 | -80.93602 | 31941 ft | 465 kts | 299° |
| 2026-04-27 23:03 | 9.66675 | -80.96361 | 32292 ft | 463 kts | 299° |
| 2026-04-27 23:03 | 9.68394 | -80.99112 | 32617 ft | 461 kts | 299° |
| 2026-04-27 23:04 | 9.70109 | -81.01857 | 32958 ft | 459 kts | 299° |
| 2026-04-27 23:04 | 9.71814 | -81.04588 | 33297 ft | 458 kts | 299° |
| 2026-04-27 23:04 | 9.73509 | -81.07303 | 33635 ft | 456 kts | 299° |
| 2026-04-27 23:04 | 9.75204 | -81.10017 | 33974 ft | 454 kts | 299° |
| 2026-04-27 23:05 | 9.76890 | -81.12714 | 34261 ft | 452 kts | 299° |
| 2026-04-27 23:05 | 9.78556 | -81.15370 | 34536 ft | 451 kts | 299° |
| 2026-04-27 23:05 | 9.80235 | -81.18047 | 34798 ft | 449 kts | 299° |
| 2026-04-27 23:05 | 9.81908 | -81.20716 | 35057 ft | 448 kts | 299° |
| 2026-04-27 23:06 | 9.83572 | -81.23379 | 35317 ft | 446 kts | 298° |
| 2026-04-27 23:06 | 9.85227 | -81.26037 | 35562 ft | 445 kts | 298° |
| 2026-04-27 23:06 | 9.86877 | -81.28685 | 35800 ft | 444 kts | 298° |
| 2026-04-27 23:06 | 9.88524 | -81.31325 | 35892 ft | 441 kts | 298° |
| 2026-04-27 23:07 | 9.91785 | -81.36536 | 35915 ft | 436 kts | 298° |
| 2026-04-27 23:07 | 9.95027 | -81.41727 | 35907 ft | 435 kts | 298° |
| 2026-04-27 23:08 | 9.98264 | -81.46912 | 35915 ft | 435 kts | 298° |
| 2026-04-27 23:08 | 10.01504 | -81.52092 | 35913 ft | 435 kts | 298° |
| 2026-04-27 23:09 | 10.04738 | -81.57276 | 35914 ft | 435 kts | 298° |
| 2026-04-27 23:09 | 10.07955 | -81.62433 | 35918 ft | 435 kts | 298° |
| 2026-04-27 23:10 | 10.11186 | -81.67619 | 35929 ft | 434 kts | 298° |
| 2026-04-27 23:10 | 10.14409 | -81.72806 | 35932 ft | 434 kts | 298° |
| 2026-04-27 23:11 | 10.17633 | -81.77975 | 35933 ft | 433 kts | 298° |
| 2026-04-27 23:11 | 10.20848 | -81.83137 | 35934 ft | 432 kts | 298° |
| 2026-04-27 23:12 | 10.24057 | -81.88301 | 35933 ft | 432 kts | 298° |
| 2026-04-27 23:12 | 10.27249 | -81.93422 | 35922 ft | 432 kts | 298° |
| 2026-04-27 23:13 | 10.30457 | -81.98578 | 35921 ft | 432 kts | 298° |
| 2026-04-27 23:13 | 10.33660 | -82.03735 | 35916 ft | 432 kts | 298° |
| 2026-04-27 23:14 | 10.36865 | -82.08885 | 35919 ft | 432 kts | 298° |
| 2026-04-27 23:14 | 10.40068 | -82.14047 | 35919 ft | 431 kts | 298° |
| 2026-04-27 23:15 | 10.43266 | -82.19204 | 35918 ft | 431 kts | 298° |
| 2026-04-27 23:15 | 10.46461 | -82.24361 | 35916 ft | 431 kts | 298° |
| 2026-04-27 23:16 | 10.49649 | -82.29521 | 35921 ft | 431 kts | 298° |
| 2026-04-27 23:16 | 10.52840 | -82.34678 | 35918 ft | 431 kts | 298° |
| 2026-04-27 23:17 | 10.56041 | -82.39833 | 35922 ft | 431 kts | 298° |
| 2026-04-27 23:17 | 10.59210 | -82.44950 | 35913 ft | 431 kts | 298° |
| 2026-04-27 23:18 | 10.62402 | -82.50110 | 35917 ft | 431 kts | 298° |
| 2026-04-27 23:18 | 10.65593 | -82.55264 | 35918 ft | 431 kts | 298° |
| 2026-04-27 23:19 | 10.68777 | -82.60415 | 35912 ft | 431 kts | 298° |
| 2026-04-27 23:19 | 10.71455 | -82.65796 | 35909 ft | 423 kts | 284° |
| 2026-04-27 23:20 | 10.73282 | -82.71483 | 35913 ft | 423 kts | 284° |
| 2026-04-27 23:20 | 10.75116 | -82.77170 | 35911 ft | 423 kts | 284° |
| 2026-04-27 23:21 | 10.76945 | -82.82857 | 35908 ft | 423 kts | 284° |
| 2026-04-27 23:21 | 10.78762 | -82.88507 | 35910 ft | 423 kts | 284° |
| 2026-04-27 23:22 | 10.80587 | -82.94201 | 35911 ft | 423 kts | 284° |
| 2026-04-27 23:22 | 10.82420 | -82.99889 | 35912 ft | 423 kts | 284° |
| 2026-04-27 23:23 | 10.84257 | -83.05584 | 35912 ft | 423 kts | 284° |
| 2026-04-27 23:23 | 10.86083 | -83.11277 | 35912 ft | 423 kts | 284° |
| 2026-04-27 23:24 | 10.87902 | -83.16973 | 35910 ft | 423 kts | 284° |
| 2026-04-27 23:24 | 10.89423 | -83.21709 | 35908 ft | 424 kts | 284° |
| 2026-04-27 23:25 | 10.91251 | -83.27413 | 35910 ft | 424 kts | 284° |
| 2026-04-27 23:25 | 10.93082 | -83.33122 | 35908 ft | 425 kts | 284° |
| 2026-04-27 23:26 | 10.94909 | -83.38836 | 35910 ft | 425 kts | 284° |
| 2026-04-27 23:26 | 10.96729 | -83.44554 | 35914 ft | 425 kts | 284° |
| 2026-04-27 23:27 | 10.98556 | -83.50273 | 35908 ft | 425 kts | 284° |
| 2026-04-27 23:27 | 11.00388 | -83.55991 | 35919 ft | 425 kts | 284° |
| 2026-04-27 23:28 | 11.02222 | -83.61718 | 35916 ft | 425 kts | 284° |
| 2026-04-27 23:28 | 11.04049 | -83.67442 | 35921 ft | 426 kts | 284° |
| 2026-04-27 23:29 | 11.05873 | -83.73178 | 35927 ft | 426 kts | 284° |
| 2026-04-27 23:29 | 11.07691 | -83.78911 | 35928 ft | 426 kts | 284° |
| 2026-04-27 23:30 | 11.09514 | -83.84636 | 35929 ft | 425 kts | 284° |
| 2026-04-27 23:30 | 11.11339 | -83.90370 | 35928 ft | 425 kts | 284° |
| 2026-04-27 23:31 | 11.13155 | -83.96102 | 35923 ft | 425 kts | 284° |
| 2026-04-27 23:31 | 11.14975 | -84.01825 | 35923 ft | 425 kts | 284° |
| 2026-04-27 23:32 | 11.16779 | -84.07505 | 35913 ft | 425 kts | 284° |
| 2026-04-27 23:32 | 11.18595 | -84.13231 | 35913 ft | 424 kts | 284° |
| 2026-04-27 23:33 | 11.20406 | -84.18944 | 35908 ft | 424 kts | 284° |
| 2026-04-27 23:33 | 11.22211 | -84.24664 | 35899 ft | 424 kts | 284° |
| 2026-04-27 23:34 | 11.24017 | -84.30387 | 35905 ft | 425 kts | 284° |
| 2026-04-27 23:34 | 11.25834 | -84.36128 | 35899 ft | 426 kts | 285° |
| 2026-04-27 23:35 | 11.27648 | -84.41875 | 35888 ft | 427 kts | 285° |
| 2026-04-27 23:35 | 11.29466 | -84.47635 | 35887 ft | 427 kts | 285° |
| 2026-04-27 23:36 | 11.31283 | -84.53405 | 35881 ft | 428 kts | 285° |
| 2026-04-27 23:36 | 11.33094 | -84.59148 | 35886 ft | 429 kts | 285° |
| 2026-04-27 23:37 | 11.34931 | -84.64976 | 35887 ft | 429 kts | 285° |
| 2026-04-27 23:37 | 11.36738 | -84.70730 | 35880 ft | 429 kts | 285° |
| 2026-04-27 23:38 | 11.38559 | -84.76526 | 35883 ft | 429 kts | 285° |
| 2026-04-27 23:38 | 11.40384 | -84.82323 | 35877 ft | 430 kts | 285° |
| 2026-04-27 23:39 | 11.42211 | -84.88124 | 35881 ft | 430 kts | 285° |
| 2026-04-27 23:39 | 11.44030 | -84.93924 | 35882 ft | 430 kts | 285° |
| 2026-04-27 23:40 | 11.45848 | -84.99734 | 35877 ft | 430 kts | 285° |
| 2026-04-27 23:40 | 11.47662 | -85.05539 | 35881 ft | 430 kts | 285° |
| 2026-04-27 23:41 | 11.49476 | -85.11346 | 35881 ft | 430 kts | 285° |
| 2026-04-27 23:41 | 11.51297 | -85.17157 | 35874 ft | 430 kts | 285° |
| 2026-04-27 23:42 | 11.53101 | -85.22922 | 35874 ft | 430 kts | 285° |
| 2026-04-27 23:42 | 11.54912 | -85.28736 | 35872 ft | 430 kts | 285° |
| 2026-04-27 23:43 | 11.56733 | -85.34539 | 35864 ft | 430 kts | 286° |
| 2026-04-27 23:43 | 11.58819 | -85.40270 | 35863 ft | 431 kts | 289° |
| 2026-04-27 23:44 | 11.61078 | -85.45934 | 35857 ft | 431 kts | 290° |
| 2026-04-27 23:44 | 11.63311 | -85.51608 | 35856 ft | 431 kts | 289° |
| 2026-04-27 23:45 | 11.65493 | -85.57300 | 35857 ft | 431 kts | 289° |
| 2026-04-27 23:45 | 11.67660 | -85.63010 | 35849 ft | 431 kts | 289° |
| 2026-04-27 23:46 | 11.69816 | -85.68683 | 35847 ft | 432 kts | 289° |
| 2026-04-27 23:46 | 11.71990 | -85.74400 | 35839 ft | 432 kts | 289° |
| 2026-04-27 23:47 | 11.74179 | -85.80126 | 35843 ft | 433 kts | 289° |
| 2026-04-27 23:47 | 11.76357 | -85.85847 | 35848 ft | 433 kts | 289° |
| 2026-04-27 23:48 | 11.78533 | -85.91578 | 35848 ft | 433 kts | 289° |
| 2026-04-27 23:48 | 11.80710 | -85.97312 | 35851 ft | 433 kts | 289° |
| 2026-04-27 23:49 | 11.82888 | -86.03041 | 35850 ft | 432 kts | 289° |
| 2026-04-27 23:49 | 11.85062 | -86.08755 | 35846 ft | 432 kts | 289° |
| 2026-04-27 23:50 | 11.87231 | -86.14476 | 35836 ft | 432 kts | 289° |
| 2026-04-27 23:50 | 11.89395 | -86.20195 | 35834 ft | 432 kts | 289° |
| 2026-04-27 23:51 | 11.91553 | -86.25886 | 35839 ft | 432 kts | 289° |
| 2026-04-27 23:51 | 11.93719 | -86.31609 | 35840 ft | 432 kts | 289° |
| 2026-04-27 23:52 | 11.95883 | -86.37333 | 35842 ft | 432 kts | 289° |
| 2026-04-27 23:52 | 11.98044 | -86.43058 | 35841 ft | 432 kts | 289° |
| 2026-04-27 23:53 | 12.00204 | -86.48784 | 35842 ft | 432 kts | 289° |
| 2026-04-27 23:53 | 12.02366 | -86.54509 | 35843 ft | 432 kts | 289° |
| 2026-04-27 23:54 | 12.04530 | -86.60238 | 35846 ft | 432 kts | 289° |
| 2026-04-27 23:54 | 12.06687 | -86.65957 | 35849 ft | 431 kts | 289° |
| 2026-04-27 23:55 | 12.08842 | -86.71679 | 35851 ft | 432 kts | 289° |
| 2026-04-27 23:55 | 12.10999 | -86.77409 | 35853 ft | 431 kts | 289° |
| 2026-04-27 23:56 | 12.13146 | -86.83130 | 35862 ft | 431 kts | 289° |
| 2026-04-27 23:56 | 12.15295 | -86.88857 | 35861 ft | 431 kts | 289° |
| 2026-04-27 23:57 | 12.17431 | -86.94541 | 35864 ft | 431 kts | 289° |
| 2026-04-27 23:57 | 12.19579 | -87.00264 | 35865 ft | 431 kts | 289° |
| 2026-04-27 23:58 | 12.21725 | -87.05996 | 35865 ft | 431 kts | 289° |
| 2026-04-27 23:58 | 12.23873 | -87.11725 | 35871 ft | 432 kts | 289° |
| 2026-04-27 23:59 | 12.26022 | -87.17460 | 35870 ft | 432 kts | 289° |
| 2026-04-27 23:59 | 12.28170 | -87.23200 | 35875 ft | 432 kts | 289° |
| 2026-04-28 00:00 | 12.30326 | -87.28942 | 35872 ft | 432 kts | 289° |
| 2026-04-28 00:00 | 12.32476 | -87.34683 | 35883 ft | 432 kts | 290° |
| 2026-04-28 00:01 | 12.34604 | -87.40392 | 35884 ft | 432 kts | 289° |
| 2026-04-28 00:01 | 12.36745 | -87.46143 | 35881 ft | 432 kts | 290° |
| 2026-04-28 00:02 | 12.38886 | -87.51887 | 35879 ft | 432 kts | 290° |
| 2026-04-28 00:02 | 12.41027 | -87.57637 | 35862 ft | 433 kts | 290° |
| 2026-04-28 00:03 | 12.43174 | -87.63412 | 35858 ft | 435 kts | 290° |
| 2026-04-28 00:03 | 12.45337 | -87.69224 | 34946 ft | 443 kts | 290° |
| 2026-04-28 00:04 | 12.46436 | -87.72186 | 34151 ft | 446 kts | 290° |
| 2026-04-28 00:04 | 12.48632 | -87.78087 | 32888 ft | 441 kts | 291° |
| 2026-04-28 00:04 | 12.49719 | -87.81006 | 32327 ft | 437 kts | 291° |
| 2026-04-28 00:05 | 12.50794 | -87.83899 | 31746 ft | 434 kts | 292° |
| 2026-04-28 00:05 | 12.51859 | -87.86772 | 31082 ft | 428 kts | 292° |
| 2026-04-28 00:05 | 12.52200 | -87.87694 | 30804 ft | 427 kts | 292° |
| 2026-04-28 00:05 | 12.53207 | -87.90412 | 30011 ft | 422 kts | 293° |
| 2026-04-28 00:06 | 12.54578 | -87.94106 | 28799 ft | 416 kts | 294° |
| 2026-04-28 00:06 | 12.55722 | -87.96793 | 27999 ft | 406 kts | 303° |
| 2026-04-28 00:06 | 12.57286 | -87.99114 | 27572 ft | 388 kts | 313° |
| 2026-04-28 00:06 | 12.59113 | -88.01065 | 27136 ft | 373 kts | 317° |
| 2026-04-28 00:07 | 12.60926 | -88.02912 | 26708 ft | 361 kts | 318° |
| 2026-04-28 00:07 | 12.62679 | -88.04696 | 26294 ft | 350 kts | 318° |
| 2026-04-28 00:07 | 12.64379 | -88.06426 | 25881 ft | 340 kts | 318° |
| 2026-04-28 00:07 | 12.66061 | -88.08132 | 25467 ft | 340 kts | 318° |
| 2026-04-28 00:08 | 12.67741 | -88.09834 | 25042 ft | 339 kts | 318° |
| 2026-04-28 00:08 | 12.69422 | -88.11535 | 24616 ft | 339 kts | 318° |
| 2026-04-28 00:08 | 12.71094 | -88.13229 | 24184 ft | 339 kts | 318° |
| 2026-04-28 00:08 | 12.72774 | -88.14934 | 23751 ft | 339 kts | 319° |
| 2026-04-28 00:09 | 12.74452 | -88.16634 | 23284 ft | 340 kts | 319° |
| 2026-04-28 00:09 | 12.76134 | -88.18339 | 22821 ft | 339 kts | 319° |
| 2026-04-28 00:09 | 12.77810 | -88.20041 | 22390 ft | 338 kts | 319° |
| 2026-04-28 00:09 | 12.79474 | -88.21733 | 21972 ft | 337 kts | 319° |
| 2026-04-28 00:10 | 12.81135 | -88.23424 | 21553 ft | 336 kts | 319° |
| 2026-04-28 00:10 | 12.82785 | -88.25106 | 21139 ft | 335 kts | 318° |
| 2026-04-28 00:10 | 12.84412 | -88.26766 | 20737 ft | 334 kts | 318° |
| 2026-04-28 00:10 | 12.86021 | -88.28485 | 20327 ft | 335 kts | 312° |
| 2026-04-28 00:11 | 12.87331 | -88.30475 | 19913 ft | 338 kts | 303° |
| 2026-04-28 00:11 | 12.88128 | -88.31885 | 19633 ft | 339 kts | 303° |
| 2026-04-28 00:11 | 12.89690 | -88.34637 | 19195 ft | 335 kts | 303° |
| 2026-04-28 00:11 | 12.90867 | -88.36703 | 18809 ft | 335 kts | 303° |
| 2026-04-28 00:12 | 12.92047 | -88.38764 | 18407 ft | 336 kts | 303° |
| 2026-04-28 00:12 | 12.93231 | -88.40831 | 17976 ft | 337 kts | 303° |
| 2026-04-28 00:12 | 12.94413 | -88.42903 | 17543 ft | 336 kts | 303° |
| 2026-04-28 00:12 | 12.95591 | -88.44973 | 17154 ft | 335 kts | 303° |
| 2026-04-28 00:13 | 12.96764 | -88.47034 | 16752 ft | 335 kts | 303° |
| 2026-04-28 00:13 | 12.97934 | -88.49092 | 16355 ft | 334 kts | 303° |
| 2026-04-28 00:13 | 12.98707 | -88.50452 | 16097 ft | 333 kts | 303° |
| 2026-04-28 00:13 | 12.99874 | -88.52502 | 15706 ft | 333 kts | 303° |
| 2026-04-28 00:14 | 13.01051 | -88.54544 | 15326 ft | 332 kts | 306° |
| 2026-04-28 00:14 | 13.02449 | -88.56406 | 14941 ft | 329 kts | 312° |
| 2026-04-28 00:14 | 13.03895 | -88.58224 | 14549 ft | 329 kts | 311° |
| 2026-04-28 00:14 | 13.05342 | -88.60048 | 14155 ft | 328 kts | 311° |
| 2026-04-28 00:15 | 13.06781 | -88.61864 | 13766 ft | 328 kts | 311° |
| 2026-04-28 00:15 | 13.08218 | -88.63680 | 13342 ft | 327 kts | 311° |
| 2026-04-28 00:15 | 13.09648 | -88.65489 | 12946 ft | 326 kts | 311° |
| 2026-04-28 00:15 | 13.11053 | -88.67267 | 12554 ft | 323 kts | 312° |
| 2026-04-28 00:16 | 13.12483 | -88.69079 | 12147 ft | 322 kts | 312° |
| 2026-04-28 00:16 | 13.13888 | -88.70862 | 11743 ft | 321 kts | 312° |
| 2026-04-28 00:16 | 13.15270 | -88.72614 | 11345 ft | 320 kts | 312° |
| 2026-04-28 00:16 | 13.16668 | -88.74383 | 10937 ft | 319 kts | 313° |
| 2026-04-28 00:17 | 13.18064 | -88.76146 | 10528 ft | 318 kts | 313° |
| 2026-04-28 00:17 | 13.19458 | -88.77907 | 10098 ft | 318 kts | 313° |
| 2026-04-28 00:17 | 13.20844 | -88.79661 | 9826 ft | 312 kts | 313° |
| 2026-04-28 00:17 | 13.22185 | -88.81365 | 9629 ft | 303 kts | 313° |
| 2026-04-28 00:18 | 13.23509 | -88.83042 | 9258 ft | 301 kts | 313° |
| 2026-04-28 00:18 | 13.24822 | -88.84704 | 8806 ft | 297 kts | 313° |
| 2026-04-28 00:18 | 13.26120 | -88.86349 | 8120 ft | 295 kts | 313° |
| 2026-04-28 00:18 | 13.27399 | -88.87971 | 7607 ft | 288 kts | 312° |
| 2026-04-28 00:19 | 13.28635 | -88.89537 | 7168 ft | 277 kts | 314° |
| 2026-04-28 00:19 | 13.30039 | -88.90785 | 6794 ft | 260 kts | 333° |
| 2026-04-28 00:19 | 13.31671 | -88.91468 | 6421 ft | 256 kts | 351° |
| 2026-04-28 00:19 | 13.33432 | -88.91598 | 5983 ft | 254 kts | 8° |
| 2026-04-28 00:20 | 13.35137 | -88.91156 | 5542 ft | 254 kts | 26° |
| 2026-04-28 00:20 | 13.36771 | -88.90439 | 5062 ft | 256 kts | 22° |
| 2026-04-28 00:20 | 13.38468 | -88.89880 | 4667 ft | 257 kts | 17° |
| 2026-04-28 00:20 | 13.40221 | -88.89490 | 4248 ft | 258 kts | 11° |
| 2026-04-28 00:21 | 13.42011 | -88.89278 | 3825 ft | 260 kts | 4° |
| 2026-04-28 00:21 | 13.43801 | -88.89489 | 3532 ft | 257 kts | 343° |
| 2026-04-28 00:21 | 13.45354 | -88.90278 | 3472 ft | 244 kts | 324° |
| 2026-04-28 00:21 | 13.46534 | -88.91469 | 3407 ft | 234 kts | 306° |
| 2026-04-28 00:22 | 13.47273 | -88.92882 | 3319 ft | 216 kts | 288° |
| 2026-04-28 00:22 | 13.47573 | -88.94295 | 3260 ft | 191 kts | 273° |
| 2026-04-28 00:22 | 13.47536 | -88.95590 | 3158 ft | 172 kts | 258° |
| 2026-04-28 00:22 | 13.47255 | -88.96727 | 3085 ft | 161 kts | 248° |
| 2026-04-28 00:23 | 13.46882 | -88.97795 | 2780 ft | 158 kts | 246° |
| 2026-04-28 00:23 | 13.46481 | -88.98852 | 2387 ft | 160 kts | 245° |
| 2026-04-28 00:23 | 13.46080 | -88.99921 | 1990 ft | 160 kts | 247° |
| 2026-04-28 00:23 | 13.45717 | -89.00990 | 1591 ft | 160 kts | 249° |
| 2026-04-28 00:24 | 13.45358 | -89.02054 | 1686 ft | 162 kts | 248° |
| 2026-04-28 00:24 | 13.44943 | -89.03220 | 1990 ft | 187 kts | 248° |
| 2026-04-28 00:24 | 13.44464 | -89.04578 | 2004 ft | 216 kts | 249° |
| 2026-04-28 00:24 | 13.43939 | -89.06055 | 2020 ft | 223 kts | 248° |
| 2026-04-28 00:25 | 13.43410 | -89.07570 | 2763 ft | 226 kts | 248° |
| 2026-04-28 00:25 | 13.42877 | -89.09099 | 3504 ft | 230 kts | 248° |
| 2026-04-28 00:25 | 13.42179 | -89.10582 | 4135 ft | 237 kts | 229° |
| 2026-04-28 00:25 | 13.40842 | -89.11503 | 4095 ft | 228 kts | 189° |
| 2026-04-28 00:26 | 13.39295 | -89.11419 | 4075 ft | 224 kts | 156° |
| 2026-04-28 00:26 | 13.38079 | -89.10480 | 4066 ft | 221 kts | 122° |
| 2026-04-28 00:26 | 13.37597 | -89.09012 | 4059 ft | 220 kts | 89° |
| 2026-04-28 00:26 | 13.37900 | -89.07470 | 4064 ft | 222 kts | 72° |
| 2026-04-28 00:27 | 13.38434 | -89.05976 | 4031 ft | 223 kts | 70° |
| 2026-04-28 00:27 | 13.39001 | -89.04496 | 4029 ft | 223 kts | 69° |
| 2026-04-28 00:27 | 13.39576 | -89.03006 | 3887 ft | 225 kts | 69° |
| 2026-04-28 00:27 | 13.40152 | -89.01527 | 3606 ft | 223 kts | 69° |
| 2026-04-28 00:28 | 13.40732 | -89.00055 | 3324 ft | 222 kts | 69° |
| 2026-04-28 00:28 | 13.41309 | -88.98607 | 3043 ft | 222 kts | 69° |
| 2026-04-28 00:28 | 13.41894 | -88.97144 | 2751 ft | 221 kts | 69° |
| 2026-04-28 00:28 | 13.42484 | -88.95689 | 2473 ft | 220 kts | 69° |
| 2026-04-28 00:29 | 13.43069 | -88.94265 | 2229 ft | 211 kts | 69° |
| 2026-04-28 00:29 | 13.43625 | -88.92913 | 2078 ft | 199 kts | 69° |
| 2026-04-28 00:29 | 13.44384 | -88.91773 | 2013 ft | 195 kts | 38° |
| 2026-04-28 00:29 | 13.45643 | -88.91353 | 2015 ft | 192 kts | 359° |
| 2026-04-28 00:30 | 13.46901 | -88.91733 | 2021 ft | 189 kts | 328° |
| 2026-04-28 00:30 | 13.47791 | -88.92695 | 2025 ft | 187 kts | 297° |
| 2026-04-28 00:30 | 13.48095 | -88.93966 | 2026 ft | 184 kts | 266° |
| 2026-04-28 00:30 | 13.47788 | -88.95228 | 2027 ft | 183 kts | 247° |
| 2026-04-28 00:31 | 13.47347 | -88.96455 | 1881 ft | 181 kts | 247° |
| 2026-04-28 00:31 | 13.46939 | -88.97607 | 1674 ft | 161 kts | 248° |
| 2026-04-28 00:31 | 13.46574 | -88.98655 | 1425 ft | 152 kts | 247° |
| 2026-04-28 00:31 | 13.46207 | -88.99659 | 1103 ft | 149 kts | 246° |
| 2026-04-28 00:32 | 13.45853 | -89.00640 | 864 ft | 144 kts | 249° |
| 2026-04-28 00:32 | 13.45521 | -89.01597 | 692 ft | 141 kts | 248° |
| 2026-04-28 00:32 | 13.45180 | -89.02536 | 467 ft | 140 kts | 248° |
| 2026-04-28 00:32 | 13.44843 | -89.03460 | 306 ft | 140 kts | 248° |
| 2026-04-28 00:33 | 13.44517 | -89.04398 | 118 ft | 138 kts | 248° |
| 2026-04-28 00:33 | 13.44230 | -89.05193 | 96 ft | 95 kts | 250° |
| 2026-04-28 00:33 | 13.44062 | -89.05666 | 91 ft | 46 kts | 250° |
| 2026-04-28 00:33 | 13.44014 | -89.05807 | 89 ft | 4 kts | 264° |
| 2026-04-28 00:34 | 13.44024 | -89.05837 | 89 ft | 5 kts | 305° |
| 2026-04-28 00:34 | 13.44049 | -89.05856 | 90 ft | 4 kts | 333° |
| 2026-04-28 00:34 | 13.44070 | -89.05863 | 89 ft | 4 kts | 341° |
| 2026-04-28 00:34 | 13.44114 | -89.05878 | 93 ft | 10 kts | 341° |
| 2026-04-28 00:35 | 13.44198 | -89.05908 | 93 ft | 16 kts | 340° |
| 2026-04-28 00:35 | 13.44269 | -89.05861 | 91 ft | 12 kts | 69° |
| 2026-04-28 00:35 | 13.44297 | -89.05786 | 92 ft | 10 kts | 69° |
| 2026-04-28 00:35 | 13.44320 | -89.05723 | 93 ft | 8 kts | 70° |
| 2026-04-28 00:36 | 13.44344 | -89.05680 | 93 ft | 6 kts | 25° |
| 2026-04-28 00:36 | 13.44375 | -89.05690 | 93 ft | 4 kts | 341° |
| 2026-04-28 00:36 | 13.44400 | -89.05698 | 93 ft | 3 kts | 342° |
| 2026-04-28 00:36 | 13.44405 | -89.05700 | 93 ft | 0 kts | 342° |